Time;durP1;ratioP1;P1;durP2;ratioP2;P2;SDS_P1;SDS_P2;PMS_P1;PMS_P2;Temp;Humidity;BMP_temperature;BMP_pressure;BME280_temperature;BME280_humidity;BME280_pressure;Samples;Min_cycle;Max_cycle;Signal;HPM_P1;HPM_P2
2023/10/13 00:01:54;;;;;;;;;;;;;;;15.73;84.90;96616.69;5064423;28;19944;-74
2023/10/13 00:04:24;;;;;;;;;;;;;;;15.68;84.51;96605.19;5064624;28;19935;-74
2023/10/13 00:06:53;;;;;;;;;;;;;;;15.65;84.84;96613.63;5064576;28;19935;-76
2023/10/13 00:09:24;;;;;;;;;;;;;;;15.61;85.15;96600.91;5065062;28;19937;-74
2023/10/13 00:11:52;;;;;;;;;;;;;;;15.57;84.84;96599.78;5065292;28;19977;-75
2023/10/13 00:14:20;;;;;;;;;;;;;;;15.55;84.91;96596.59;5064411;28;19954;-75
2023/10/13 00:17:00;;;;;;;;;;;;;;;15.51;84.66;96594.69;5064346;28;19946;-75
2023/10/13 00:19:27;;;;;;;;;;;;;;;15.47;84.99;96602.31;5064929;28;19944;-75
2023/10/13 00:21:56;;;;;;;;;;;;;;;15.42;85.39;96591.69;5064328;28;19937;-74
2023/10/13 00:24:23;;;;;;;;;;;;;;;15.39;85.83;96592.16;5064272;28;19943;-72
2023/10/13 00:26:49;;;;;;;;;;;;;;;15.35;85.53;96591.84;5064567;28;19932;-73
2023/10/13 00:29:18;;;;;;;;;;;;;;;15.30;85.35;96580.41;5065049;28;19936;-74
2023/10/13 00:31:48;;;;;;;;;;;;;;;15.27;85.82;96586.19;5064326;28;19935;-73
2023/10/13 00:34:25;;;;;;;;;;;;;;;15.22;86.29;96587.72;5064028;28;19968;-73
2023/10/13 00:39:45;;;;;;;;;;;;;;;15.13;86.19;96577.81;5064593;28;19933;-74
2023/10/13 00:42:19;;;;;;;;;;;;;;;15.06;86.75;96591.19;5064875;28;19937;-74
2023/10/13 00:44:48;;;;;;;;;;;;;;;15.01;85.92;96577.91;5064103;28;19931;-81
2023/10/13 00:47:39;;;;;;;;;;;;;;;14.97;85.89;96574.97;5063859;28;19965;-74
2023/10/13 00:50:05;;;;;;;;;;;;;;;14.97;86.42;96579.44;5064145;28;19941;-74
2023/10/13 00:52:32;;;;;;;;;;;;;;;14.94;86.20;96577.28;5063908;28;19936;-74
2023/10/13 00:54:59;;;;;;;;;;;;;;;14.93;87.30;96584.41;5063805;28;19950;-74
2023/10/13 00:57:32;;;;;;;;;;;;;;;14.91;87.18;96577.75;5063920;28;19942;-74
2023/10/13 00:59:59;;;;;;;;;;;;;;;14.89;87.24;96575.38;5063904;28;19940;-74
2023/10/13 01:05:09;;;;;;;;;;;;;;;14.85;87.78;96590.09;5063886;28;20126;-73
2023/10/13 01:07:37;;;;;;;;;;;;;;;14.85;87.24;96594.59;5064042;28;19931;-74
2023/10/13 01:10:13;;;;;;;;;;;;;;;14.84;85.80;96579.78;5063796;28;20225;-73
2023/10/13 01:12:38;;;;;;;;;;;;;;;14.82;87.72;96588.75;5064426;28;19935;-74
2023/10/13 01:15:08;;;;;;;;;;;;;;;14.80;87.39;96590.81;5067765;28;19949;-73
2023/10/13 01:17:36;;;;;;;;;;;;;;;14.79;87.25;96585.78;5067748;28;19937;-73
2023/10/13 01:20:04;;;;;;;;;;;;;;;14.77;88.32;96580.72;5067793;28;20259;-70
2023/10/13 01:22:32;;;;;;;;;;;;;;;14.73;88.27;96582.25;5067741;28;19935;-73
2023/10/13 01:25:12;;;;;;;;;;;;;;;14.71;87.99;96580.91;5067664;28;20216;-74
2023/10/13 01:27:38;;;;;;;;;;;;;;;14.67;85.58;96572.66;5067884;28;19931;-74
2023/10/13 01:30:22;;;;;;;;;;;;;;;14.64;88.52;96575.78;5067570;28;19938;-73
2023/10/13 01:32:50;;;;;;;;;;;;;;;14.61;89.79;96581.53;5067513;28;19947;-74
2023/10/13 01:35:18;;;;;;;;;;;;;;;14.57;89.14;96575.94;5067454;28;20269;-74
2023/10/13 01:37:45;;;;;;;;;;;;;;;14.54;88.97;96573.75;5067915;28;19935;-73
2023/10/13 01:40:12;;;;;;;;;;;;;;;14.52;89.86;96572.41;5068202;28;19938;-70
2023/10/13 01:42:39;;;;;;;;;;;;;;;14.50;90.06;96571.84;5067254;28;19926;-72
2023/10/13 01:45:07;;;;;;;;;;;;;;;14.45;90.17;96569.91;5067820;28;19941;-71
2023/10/13 01:47:33;;;;;;;;;;;;;;;14.42;90.62;96570.38;5067519;28;19969;-71
2023/10/13 01:50:12;;;;;;;;;;;;;;;14.40;90.42;96575.09;5067952;28;19930;-71
2023/10/13 01:52:39;;;;;;;;;;;;;;;14.36;90.61;96572.16;5067399;28;19930;-71
2023/10/13 01:55:07;;;;;;;;;;;;;;;14.34;88.42;96561.03;5067004;28;20268;-71
2023/10/13 01:57:33;;;;;;;;;;;;;;;14.31;90.49;96558.84;5066445;28;19942;-70
2023/10/13 02:00:08;;;;;;;;;;;;;;;14.30;90.87;96559.91;5067784;28;20283;-74
2023/10/13 02:02:34;;;;;;;;;;;;;;;14.26;91.16;96560.59;5067463;28;19938;-74
2023/10/13 02:05:02;;;;;;;;;;;;;;;14.25;91.44;96551.91;5067415;28;19966;-73
2023/10/13 02:07:30;;;;;;;;;;;;;;;14.24;91.31;96555.59;5066785;28;20260;-74
2023/10/13 02:09:56;;;;;;;;;;;;;;;14.20;91.64;96554.47;5067294;28;19949;-74
2023/10/13 02:12:28;;;;;;;;;;;;;;;14.16;91.55;96556.78;5067296;28;19929;-74
2023/10/13 02:14:54;;;;;;;;;;;;;;;14.12;91.93;96558.28;5067459;28;19947;-70
2023/10/13 02:17:21;;;;;;;;;;;;;;;14.09;90.63;96550.84;5067219;28;19942;-73
2023/10/13 02:19:47;;;;;;;;;;;;;;;14.08;91.44;96543.16;5066660;28;20127;-70
2023/10/13 02:22:29;;;;;;;;;;;;;;;14.04;91.94;96542.84;5066532;28;19952;-70
2023/10/13 02:25:01;;;;;;;;;;;;;;;14.01;92.14;96544.13;5067282;28;19926;-69
2023/10/13 02:27:27;;;;;;;;;;;;;;;13.98;92.74;96534.06;5067373;28;20022;-70
2023/10/13 02:29:58;;;;;;;;;;;;;;;13.95;92.77;96539.78;5066399;28;19932;-70
2023/10/13 02:32:24;;;;;;;;;;;;;;;13.92;92.81;96535.00;5067237;28;19942;-70
2023/10/13 02:34:50;;;;;;;;;;;;;;;13.90;93.11;96533.63;5066550;28;20149;-74
2023/10/13 02:37:19;;;;;;;;;;;;;;;13.87;92.74;96529.63;5066322;28;19933;-75
2023/10/13 02:39:45;;;;;;;;;;;;;;;13.86;93.49;96522.75;5066272;28;19946;-75
2023/10/13 02:42:23;;;;;;;;;;;;;;;13.83;93.41;96522.44;5067062;28;20116;-75
2023/10/13 02:44:49;;;;;;;;;;;;;;;13.80;93.05;96510.53;5066757;28;19936;-75
2023/10/13 02:47:15;;;;;;;;;;;;;;;13.78;93.17;96517.88;5066601;28;19966;-75
2023/10/13 02:49:45;;;;;;;;;;;;;;;13.75;93.83;96524.41;5066307;28;19945;-75
2023/10/13 02:52:12;;;;;;;;;;;;;;;13.74;93.70;96516.75;5066849;28;20108;-79
2023/10/13 02:54:57;;;;;;;;;;;;;;;13.72;93.76;96511.69;5065932;28;19952;-74
2023/10/13 02:57:23;;;;;;;;;;;;;;;13.71;93.85;96518.03;5065935;28;19959;-74
2023/10/13 03:00:11;;;;;;;;;;;;;;;13.70;94.63;96519.03;5066416;28;19929;-74
2023/10/13 03:02:41;;;;;;;;;;;;;;;13.67;94.88;96522.16;5066048;28;20118;-74
2023/10/13 03:05:13;;;;;;;;;;;;;;;13.66;93.75;96517.13;5066599;28;19934;-74
2023/10/13 03:07:45;;;;;;;;;;;;;;;13.64;94.01;96517.34;5066291;28;19938;-74
2023/10/13 03:10:11;;;;;;;;;;;;;;;13.62;94.58;96513.34;5065734;28;19947;-80
2023/10/13 03:12:38;;;;;;;;;;;;;;;13.62;93.91;96508.06;5065682;28;19933;-74
2023/10/13 03:17:37;;;;;;;;;;;;;;;13.59;94.22;96518.06;5066319;28;20202;-74
2023/10/13 03:20:05;;;;;;;;;;;;;;;13.57;94.41;96512.22;5066035;28;20233;-74
2023/10/13 03:22:31;;;;;;;;;;;;;;;13.56;94.14;96502.69;5065450;28;19937;-73
2023/10/13 03:25:06;;;;;;;;;;;;;;;13.55;93.96;96502.94;5065358;28;19930;-73
2023/10/13 03:30:15;;;;;;;;;;;;;;;13.52;95.23;96509.50;5065401;28;19934;-73
2023/10/13 03:32:53;;;;;;;;;;;;;;;13.52;94.61;96492.88;5066008;28;19935;-71
2023/10/13 03:35:27;;;;;;;;;;;;;;;13.51;94.31;96499.97;5064934;28;19963;-71
2023/10/13 03:37:53;;;;;;;;;;;;;;;13.49;94.56;96504.69;5064960;28;20120;-71
2023/10/13 03:45:40;;;;;;;;;;;;;;;13.45;95.13;96500.91;5065282;28;20218;-71
2023/10/13 03:48:11;;;;;;;;;;;;;;;13.44;95.71;96503.78;5065064;28;19960;-74
2023/10/13 03:50:45;;;;;;;;;;;;;;;13.44;95.17;96495.88;5065739;28;19941;-76
2023/10/13 03:53:13;;;;;;;;;;;;;;;13.43;95.70;96492.44;5064888;28;20225;-76
2023/10/13 03:55:39;;;;;;;;;;;;;;;13.44;95.45;96493.25;5065234;28;19956;-77
2023/10/13 03:58:06;;;;;;;;;;;;;;;13.43;95.88;96489.03;5064765;28;19953;-75
2023/10/13 04:00:32;;;;;;;;;;;;;;;13.43;95.53;96491.66;5064713;28;19941;-75
2023/10/13 04:03:16;;;;;;;;;;;;;;;13.41;95.24;96489.25;5065187;28;19947;-76
2023/10/13 04:05:46;;;;;;;;;;;;;;;13.41;95.70;96486.63;5064666;28;19936;-76
2023/10/13 04:14:21;;;;;;;;;;;;;;;13.35;96.58;96487.56;5065305;28;19934;-71
2023/10/13 04:32:38;;;;;;;;;;;;;;;13.27;95.62;96478.16;5064820;28;19940;-74
2023/10/13 04:35:18;;;;;;;;;;;;;;;13.26;96.38;96481.81;5064575;28;19964;-75
2023/10/13 04:38:10;;;;;;;;;;;;;;;13.25;96.23;96487.31;5064998;28;19936;-74
2023/10/13 04:40:55;;;;;;;;;;;;;;;13.22;96.36;96479.91;5064149;28;20120;-74
2023/10/13 04:43:54;;;;;;;;;;;;;;;13.19;96.81;96478.53;5064678;28;19937;-70
2023/10/13 04:46:35;;;;;;;;;;;;;;;13.16;97.06;96477.16;5063915;28;19942;-73
2023/10/13 04:49:09;;;;;;;;;;;;;;;13.14;97.02;96465.25;5063009;28;19964;-73
2023/10/13 04:54:32;;;;;;;;;;;;;;;13.13;97.69;96463.66;5064386;28;19939;-73
2023/10/13 05:51:47;;;;;;;;;;;;;;;12.84;99.21;96450.44;5064251;28;19941;-73
2023/10/13 06:29:40;;;;;;;;;;;;;;;13.83;97.15;96438.88;5066515;28;19943;-80
2023/10/13 06:32:12;;;;;;;;;;;;;;;14.07;95.48;96430.81;5066395;28;19931;-80
2023/10/13 06:34:42;;;;;;;;;;;;;;;14.30;94.52;96432.47;5066858;28;19962;-73
2023/10/13 06:39:56;;;;;;;;;;;;;;;14.74;90.87;96422.03;5066328;28;20231;-73
2023/10/13 06:42:28;;;;;;;;;;;;;;;14.92;90.80;96419.09;5066282;28;19937;-73
2023/10/13 06:44:54;;;;;;;;;;;;;;;15.09;89.47;96413.72;5066162;28;19943;-73
2023/10/13 06:47:21;;;;;;;;;;;;;;;15.18;88.38;96412.28;5066548;28;19962;-73
2023/10/13 06:49:51;;;;;;;;;;;;;;;15.31;88.56;96402.38;5066121;28;19936;-73
2023/10/13 06:52:17;;;;;;;;;;;;;;;15.38;87.87;96406.38;5066899;28;19935;-72
2023/10/13 06:54:43;;;;;;;;;;;;;;;15.44;87.18;96401.97;5066218;28;19943;-77
2023/10/13 06:57:14;;;;;;;;;;;;;;;15.57;86.66;96398.09;5066002;28;19941;-75
2023/10/13 06:59:40;;;;;;;;;;;;;;;15.73;86.16;96404.38;5066696;28;20202;-75
2023/10/13 07:02:08;;;;;;;;;;;;;;;15.84;85.31;96395.47;5065939;28;19946;-75
2023/10/13 07:04:40;;;;;;;;;;;;;;;15.95;84.61;96394.47;5065836;28;19934;-76
2023/10/13 07:07:10;;;;;;;;;;;;;;;16.09;84.93;96402.78;5066087;28;20121;-75
2023/10/13 07:12:03;;;;;;;;;;;;;;;16.31;83.95;96401.88;5065487;28;19932;-75
2023/10/13 07:14:33;;;;;;;;;;;;;;;16.42;84.30;96399.03;5066040;28;19948;-74
2023/10/13 07:17:04;;;;;;;;;;;;;;;16.55;83.85;96395.13;5066431;28;19932;-73
2023/10/13 07:19:30;;;;;;;;;;;;;;;16.64;81.82;96396.22;5066088;28;19934;-74
2023/10/13 07:22:18;;;;;;;;;;;;;;;16.73;81.31;96387.78;5065554;28;20139;-74
2023/10/13 07:24:48;;;;;;;;;;;;;;;16.83;80.41;96386.00;5065486;28;19934;-74
2023/10/13 07:27:24;;;;;;;;;;;;;;;16.92;81.24;96388.97;5065924;28;20207;-74
2023/10/13 07:30:14;;;;;;;;;;;;;;;16.96;79.82;96384.75;5065684;28;19961;-73
2023/10/13 07:32:45;;;;;;;;;;;;;;;17.02;81.00;96386.34;5065364;28;19930;-74
2023/10/13 07:35:11;;;;;;;;;;;;;;;17.11;80.97;96385.84;5065739;28;19963;-75
2023/10/13 07:37:41;;;;;;;;;;;;;;;17.17;79.73;96387.44;5065285;28;19930;-74
2023/10/13 07:40:22;;;;;;;;;;;;;;;17.24;80.34;96382.72;5065122;28;19936;-75
2023/10/13 07:42:48;;;;;;;;;;;;;;;17.31;78.81;96377.16;5065420;28;19935;-75
2023/10/13 07:45:13;;;;;;;;;;;;;;;17.36;79.85;96379.81;5065072;28;19937;-75
2023/10/13 07:47:39;;;;;;;;;;;;;;;17.43;78.83;96381.16;5065221;28;20283;-74
2023/10/13 07:50:06;;;;;;;;;;;;;;;17.50;79.42;96386.19;5064954;28;19939;-76
2023/10/13 07:52:54;;;;;;;;;;;;;;;17.60;79.15;96377.47;5065441;28;19935;-75
2023/10/13 07:55:21;;;;;;;;;;;;;;;17.71;79.55;96375.63;5065426;28;19962;-75
2023/10/13 07:57:58;;;;;;;;;;;;;;;17.84;78.43;96377.75;5064786;28;20239;-76
2023/10/13 08:05:58;;;;;;;;;;;;;;;18.10;76.40;96359.97;5065031;28;19939;-77
2023/10/13 08:08:43;;;;;;;;;;;;;;;18.23;78.06;96370.03;5064702;28;19935;-73
2023/10/13 08:13:58;;;;;;;;;;;;;;;18.48;76.82;96364.91;5065386;28;19935;-74
2023/10/13 08:16:45;;;;;;;;;;;;;;;18.56;76.80;96367.84;5064484;28;19947;-73
2023/10/13 08:19:15;;;;;;;;;;;;;;;18.67;75.09;96357.97;5064524;28;19944;-74
2023/10/13 08:21:48;;;;;;;;;;;;;;;18.71;74.65;96356.34;5064301;28;19942;-73
2023/10/13 08:24:15;;;;;;;;;;;;;;;18.77;74.74;96359.78;5064756;28;19938;-74
2023/10/13 08:37:29;;;;;;;;;;;;;;;18.99;74.89;96357.56;5065300;28;19954;-73
2023/10/13 08:56:14;;;;;;;;;;;;;;;19.29;73.51;96350.50;5064766;28;19950;-70
2023/10/13 09:12:19;;;;;;;;;;;;;;;19.82;69.60;96334.72;5064319;28;19946;-71
2023/10/13 09:15:03;;;;;;;;;;;;;;;19.94;66.38;96331.66;5063740;28;19954;-72
2023/10/13 09:19:59;;;;;;;;;;;;;;;20.22;66.82;96334.59;5064588;28;19936;-74
2023/10/13 09:22:52;;;;;;;;;;;;;;;20.34;68.09;96342.19;5063728;28;19943;-74
2023/10/13 09:25:14;;;;;;;;;;;;;;;20.44;65.26;96326.09;5064234;28;19937;-74
2023/10/13 09:27:40;;;;;;;;;;;;;;;20.57;64.93;96324.63;5063696;28;19939;-75
2023/10/13 09:30:22;;;;;;;;;;;;;;;20.66;64.08;96318.41;5063588;28;19932;-75
2023/10/13 09:33:15;;;;;;;;;;;;;;;20.76;65.31;96320.13;5064505;28;19950;-75
2023/10/13 09:35:49;;;;;;;;;;;;;;;20.91;65.48;96321.03;5067423;28;19955;-74
2023/10/13 09:38:18;;;;;;;;;;;;;;;21.03;61.15;96308.84;5068094;28;20112;-73
2023/10/13 09:40:50;;;;;;;;;;;;;;;21.18;64.00;96315.84;5067723;28;20126;-74
2023/10/13 09:43:18;;;;;;;;;;;;;;;21.32;62.73;96309.81;5067583;28;20100;-74
2023/10/13 09:48:34;;;;;;;;;;;;;;;21.62;61.61;96311.22;5067248;28;19965;-73
2023/10/13 09:51:02;;;;;;;;;;;;;;;21.72;62.14;96307.59;5067224;28;20214;-74
2023/10/13 09:53:29;;;;;;;;;;;;;;;21.78;58.27;96306.44;5066192;28;20126;-73
2023/10/13 09:56:19;;;;;;;;;;;;;;;21.86;61.36;96316.44;5067315;28;20266;-70
2023/10/13 09:58:57;;;;;;;;;;;;;;;21.97;59.88;96306.38;5067723;28;19933;-75
2023/10/13 10:01:37;;;;;;;;;;;;;;;22.08;59.70;96303.19;5067129;28;19938;-75
2023/10/13 10:04:17;;;;;;;;;;;;;;;22.26;60.67;96308.81;5067555;28;19936;-74
2023/10/13 10:07:02;;;;;;;;;;;;;;;22.43;58.71;96306.31;5067591;28;20096;-74
2023/10/13 10:09:36;;;;;;;;;;;;;;;22.50;54.91;96298.69;5067005;28;19932;-74
2023/10/13 10:12:05;;;;;;;;;;;;;;;22.50;56.33;96305.91;5067460;28;20110;-74
2023/10/13 10:14:30;;;;;;;;;;;;;;;22.58;55.87;96297.22;5067347;28;19939;-74
2023/10/13 10:17:09;;;;;;;;;;;;;;;22.71;56.92;96303.63;5066698;28;19955;-83
2023/10/13 10:19:56;;;;;;;;;;;;;;;22.87;55.29;96304.09;5067328;28;20118;-83
2023/10/13 10:22:27;;;;;;;;;;;;;;;23.03;55.10;96294.66;5067565;28;19939;-83
2023/10/13 10:24:59;;;;;;;;;;;;;;;23.18;53.26;96288.22;5067395;28;19940;-84
2023/10/13 10:27:29;;;;;;;;;;;;;;;23.27;54.36;96290.94;5066607;28;19951;-84
2023/10/13 10:29:56;;;;;;;;;;;;;;;23.28;56.13;96295.19;5066552;28;19938;-84
2023/10/13 10:32:48;;;;;;;;;;;;;;;23.32;55.55;96282.78;5067097;28;20234;-75
2023/10/13 10:35:14;;;;;;;;;;;;;;;23.38;54.80;96289.59;5066421;28;19961;-82
2023/10/13 10:37:46;;;;;;;;;;;;;;;23.37;52.90;96281.88;5066456;28;19947;-83
2023/10/13 10:40:41;;;;;;;;;;;;;;;23.41;55.15;96280.16;5066431;28;19940;-82
2023/10/13 10:43:08;;;;;;;;;;;;;;;23.51;52.46;96286.06;5066232;28;19951;-83
2023/10/13 10:45:45;;;;;;;;;;;;;;;23.65;52.32;96280.66;5065027;28;20235;-83
2023/10/13 10:48:21;;;;;;;;;;;;;;;23.76;54.66;96275.84;5066271;28;20143;-84
2023/10/13 10:50:55;;;;;;;;;;;;;;;23.85;55.44;96271.31;5066726;28;19936;-70
2023/10/13 10:53:34;;;;;;;;;;;;;;;23.90;52.65;96254.34;5066182;28;19941;-75
2023/10/13 10:56:08;;;;;;;;;;;;;;;23.98;53.11;96252.78;5066544;28;19961;-75
2023/10/13 10:58:43;;;;;;;;;;;;;;;23.98;52.38;96255.47;5066255;28;19941;-75
2023/10/13 11:01:18;;;;;;;;;;;;;;;23.97;51.90;96245.88;5066802;28;19937;-75
2023/10/13 11:03:57;;;;;;;;;;;;;;;23.94;51.06;96246.47;5066478;28;19939;-75
2023/10/13 11:06:25;;;;;;;;;;;;;;;23.91;52.55;96250.56;5064774;28;19930;-75
2023/10/13 11:09:03;;;;;;;;;;;;;;;23.99;51.70;96252.50;5066631;28;19938;-72
2023/10/13 11:11:35;;;;;;;;;;;;;;;24.15;52.80;96241.34;5065794;28;19934;-74
2023/10/13 11:14:13;;;;;;;;;;;;;;;24.29;50.48;96229.41;5066301;28;19925;-75
2023/10/13 11:16:59;;;;;;;;;;;;;;;24.44;50.96;96230.91;5066215;28;19956;-75
2023/10/13 11:19:35;;;;;;;;;;;;;;;24.60;49.68;96227.78;5065628;28;19935;-75
2023/10/13 11:22:11;;;;;;;;;;;;;;;24.80;49.65;96221.81;5065530;28;19948;-75
2023/10/13 11:24:43;;;;;;;;;;;;;;;24.95;50.99;96225.13;5065540;28;19945;-75
2023/10/13 11:27:21;;;;;;;;;;;;;;;25.10;49.11;96220.06;5065443;28;20128;-72
2023/10/13 11:29:52;;;;;;;;;;;;;;;25.25;46.83;96213.44;5066124;28;19936;-75
2023/10/13 11:32:20;;;;;;;;;;;;;;;25.37;48.06;96220.09;5065902;28;19967;-75
2023/10/13 11:34:51;;;;;;;;;;;;;;;25.49;47.10;96212.13;5065751;28;19957;-74
2023/10/13 11:37:37;;;;;;;;;;;;;;;25.52;46.11;96211.50;5065837;28;20118;-73
2023/10/13 11:40:12;;;;;;;;;;;;;;;25.57;46.18;96205.97;5065158;28;19944;-73
2023/10/13 11:42:43;;;;;;;;;;;;;;;25.62;47.12;96211.16;5065155;28;19928;-73
2023/10/13 11:45:28;;;;;;;;;;;;;;;25.64;45.21;96203.59;5065357;28;19938;-73
2023/10/13 11:48:00;;;;;;;;;;;;;;;25.70;45.63;96198.81;5065150;28;19985;-69
2023/10/13 11:50:33;;;;;;;;;;;;;;;25.76;44.24;96192.16;5065818;28;20208;-70
2023/10/13 11:53:00;;;;;;;;;;;;;;;25.79;43.10;96190.75;5064960;28;19931;-71
2023/10/13 11:55:26;;;;;;;;;;;;;;;25.84;42.89;96187.88;5065700;28;20104;-71
2023/10/13 11:57:52;;;;;;;;;;;;;;;25.90;45.70;96182.00;5065290;28;19936;-71
2023/10/13 12:00:50;;;;;;;;;;;;;;;25.94;43.89;96192.13;5063816;28;19963;-71
2023/10/13 12:06:19;;;;;;;;;;;;;;;25.88;45.22;96183.41;5065367;28;19934;-74
2023/10/13 12:08:52;;;;;;;;;;;;;;;25.93;46.95;96180.56;5065278;28;19935;-71
2023/10/13 12:11:30;;;;;;;;;;;;;;;25.93;45.06;96177.88;5065235;28;19941;-71
2023/10/13 12:13:56;;;;;;;;;;;;;;;25.97;45.92;96178.81;5064620;28;19936;-71
2023/10/13 12:16:22;;;;;;;;;;;;;;;25.99;43.79;96160.47;5064464;28;20154;-70
2023/10/13 12:18:53;;;;;;;;;;;;;;;26.09;44.70;96160.09;5064509;28;19952;-71
2023/10/13 12:21:21;;;;;;;;;;;;;;;26.19;44.53;96152.78;5065319;28;19941;-71
2023/10/13 12:23:47;;;;;;;;;;;;;;;26.26;43.19;96153.84;5064432;28;19950;-75
2023/10/13 12:26:19;;;;;;;;;;;;;;;26.35;41.19;96148.38;5064418;28;19931;-71
2023/10/13 12:28:51;;;;;;;;;;;;;;;26.44;40.34;96145.66;5064914;28;19936;-72
2023/10/13 12:31:26;;;;;;;;;;;;;;;26.51;39.20;96145.91;5064941;28;19934;-72
2023/10/13 12:33:52;;;;;;;;;;;;;;;26.64;43.00;96134.13;5065082;28;19935;-72
2023/10/13 12:52:25;;;;;;;;;;;;;;;27.14;39.15;96108.97;5064560;28;19942;-72
2023/10/13 12:57:23;;;;;;;;;;;;;;;27.22;37.43;96096.56;5064453;28;19949;-72
2023/10/13 12:59:53;;;;;;;;;;;;;;;27.24;38.21;96094.31;5063924;28;19937;-70
2023/10/13 13:02:24;;;;;;;;;;;;;;;27.26;38.89;96105.56;5063935;28;20115;-73
2023/10/13 13:04:54;;;;;;;;;;;;;;;27.30;37.02;96095.69;5063855;28;19943;-74
2023/10/13 13:07:20;;;;;;;;;;;;;;;27.30;37.63;96106.47;5063836;28;20021;-73
2023/10/13 13:09:46;;;;;;;;;;;;;;;27.31;37.61;96096.47;5065854;28;20265;-73
2023/10/13 13:12:14;;;;;;;;;;;;;;;27.33;36.56;96094.22;5068774;28;19928;-73
2023/10/13 13:14:45;;;;;;;;;;;;;;;27.37;35.68;96088.97;5067920;28;19945;-73
2023/10/13 13:17:12;;;;;;;;;;;;;;;27.33;35.36;96092.31;5068340;28;19954;-73
2023/10/13 13:19:40;;;;;;;;;;;;;;;27.35;35.80;96085.81;5067838;28;19943;-72
2023/10/13 13:22:13;;;;;;;;;;;;;;;27.37;35.89;96094.34;5067505;28;19932;-73
2023/10/13 13:24:46;;;;;;;;;;;;;;;27.40;36.12;96093.66;5067724;28;19939;-73
2023/10/13 13:27:19;;;;;;;;;;;;;;;27.33;34.84;96081.53;5068475;28;19950;-73
2023/10/13 13:29:45;;;;;;;;;;;;;;;27.25;34.85;96073.56;5068415;28;19944;-72
2023/10/13 13:32:45;;;;;;;;;;;;;;;27.16;35.27;96079.03;5067590;28;20145;-73
2023/10/13 13:35:07;;;;;;;;;;;;;;;27.11;35.90;96071.19;5065529;28;19949;-73
2023/10/13 13:37:34;;;;;;;;;;;;;;;27.14;36.65;96070.50;5067426;28;19951;-70
2023/10/13 13:40:22;;;;;;;;;;;;;;;27.12;35.76;96070.81;5067930;28;19935;-74
2023/10/13 13:42:47;;;;;;;;;;;;;;;27.13;36.76;96063.53;5067632;28;19936;-74
2023/10/13 13:45:31;;;;;;;;;;;;;;;27.17;36.66;96061.75;5067356;28;20004;-73
2023/10/13 13:47:57;;;;;;;;;;;;;;;27.18;36.32;96054.47;5067376;28;19965;-73
2023/10/13 13:50:25;;;;;;;;;;;;;;;27.16;36.17;96056.72;5067338;28;19949;-75
2023/10/13 13:52:52;;;;;;;;;;;;;;;27.08;34.83;96050.31;5067243;28;19934;-75
2023/10/13 13:55:19;;;;;;;;;;;;;;;27.03;35.10;96045.94;5067158;28;19939;-74
2023/10/13 13:57:46;;;;;;;;;;;;;;;27.00;35.08;96048.50;5067173;28;19938;-75
2023/10/13 14:00:17;;;;;;;;;;;;;;;26.96;34.87;96037.59;5067088;28;19942;-74
2023/10/13 14:02:47;;;;;;;;;;;;;;;26.95;34.74;96037.94;5067081;28;19938;-75
2023/10/13 14:05:15;;;;;;;;;;;;;;;26.92;33.92;96042.88;5066998;28;19935;-74
2023/10/13 14:07:51;;;;;;;;;;;;;;;26.89;35.19;96029.31;5067781;28;19942;-74
2023/10/13 14:11:13;;;;;;;;;;;;;;;26.91;34.37;96029.75;5067486;28;19932;-75
2023/10/13 14:13:22;;;;;;;;;;;;;;;26.89;33.72;96026.59;5067243;28;19945;-74
2023/10/13 14:15:48;;;;;;;;;;;;;;;26.90;35.52;96031.66;5067570;28;20112;-73
2023/10/13 14:18:17;;;;;;;;;;;;;;;26.88;33.94;96023.13;5066749;28;19941;-73
2023/10/13 14:20:42;;;;;;;;;;;;;;;26.83;33.18;96023.34;5066569;28;19934;-73
2023/10/13 14:23:11;;;;;;;;;;;;;;;26.77;33.30;96015.81;5066613;28;19938;-74
2023/10/13 14:25:44;;;;;;;;;;;;;;;26.73;35.20;96018.38;5066307;28;20119;-75
2023/10/13 14:28:15;;;;;;;;;;;;;;;26.66;34.41;96013.53;5067419;28;19937;-75
2023/10/13 14:30:41;;;;;;;;;;;;;;;26.61;33.98;96000.31;5067060;28;19937;-76
2023/10/13 14:33:10;;;;;;;;;;;;;;;26.59;33.69;96004.47;5067323;28;19935;-72
2023/10/13 14:35:37;;;;;;;;;;;;;;;26.56;33.90;95999.72;5066434;28;19952;-75
2023/10/13 14:38:03;;;;;;;;;;;;;;;26.53;33.71;96007.31;5066406;28;19927;-74
2023/10/13 14:40:29;;;;;;;;;;;;;;;26.51;33.47;96000.72;5065255;28;19930;-75
2023/10/13 14:42:56;;;;;;;;;;;;;;;26.50;34.18;96002.63;5066288;28;20128;-75
2023/10/13 14:45:22;;;;;;;;;;;;;;;26.49;34.87;96003.72;5066273;28;19935;-75
2023/10/13 14:47:48;;;;;;;;;;;;;;;26.50;35.86;95999.13;5066078;28;19973;-75
2023/10/13 14:50:19;;;;;;;;;;;;;;;26.47;34.76;95989.03;5067016;28;20087;-74
2023/10/13 14:52:46;;;;;;;;;;;;;;;26.41;34.57;95990.38;5067004;28;20220;-84
2023/10/13 14:55:18;;;;;;;;;;;;;;;26.34;34.65;95996.28;5066606;28;19927;-83
2023/10/13 14:57:46;;;;;;;;;;;;;;;26.27;33.48;95985.25;5066276;28;19953;-84
2023/10/13 15:00:14;;;;;;;;;;;;;;;26.21;34.15;95989.28;5065968;28;19945;-85
2023/10/13 15:02:42;;;;;;;;;;;;;;;26.15;33.02;95990.63;5066460;28;20127;-86
2023/10/13 15:05:16;;;;;;;;;;;;;;;26.12;34.38;95986.66;5065864;28;20216;-84
2023/10/13 15:07:45;;;;;;;;;;;;;;;26.06;33.37;95979.91;5066741;28;19944;-77
2023/10/13 15:10:14;;;;;;;;;;;;;;;25.98;33.83;95976.19;5065857;28;20100;-74
2023/10/13 15:12:41;;;;;;;;;;;;;;;25.90;34.19;95977.06;5065729;28;19933;-76
2023/10/13 15:15:13;;;;;;;;;;;;;;;25.83;33.55;95976.75;5065666;28;20128;-74
2023/10/13 15:17:40;;;;;;;;;;;;;;;25.75;32.51;95969.56;5065858;28;19951;-74
2023/10/13 15:20:08;;;;;;;;;;;;;;;25.69;33.90;95971.66;5066161;28;19936;-74
2023/10/13 15:22:36;;;;;;;;;;;;;;;25.63;33.08;95972.94;5066367;28;19934;-75
2023/10/13 15:25:20;;;;;;;;;;;;;;;25.56;33.42;95962.75;5066022;28;19942;-75
2023/10/13 15:27:50;;;;;;;;;;;;;;;25.48;33.91;95968.94;5065985;28;19959;-75
2023/10/13 15:30:25;;;;;;;;;;;;;;;25.41;34.83;95965.97;5065434;28;20245;-71
2023/10/13 15:32:51;;;;;;;;;;;;;;;25.34;35.18;95960.34;5064604;28;19938;-72
2023/10/13 15:35:18;;;;;;;;;;;;;;;25.27;35.31;95958.97;5065280;28;19953;-71
2023/10/13 15:37:47;;;;;;;;;;;;;;;25.20;34.59;95958.69;5065759;28;19953;-72
2023/10/13 15:40:15;;;;;;;;;;;;;;;25.13;34.58;95958.38;5065968;28;19930;-72
2023/10/13 15:42:42;;;;;;;;;;;;;;;25.05;34.56;95968.03;5065222;28;20155;-72
2023/10/13 15:45:16;;;;;;;;;;;;;;;24.99;34.98;95957.78;5065677;28;19937;-74
2023/10/13 15:47:46;;;;;;;;;;;;;;;24.92;35.23;95955.63;5065065;28;19963;-72
2023/10/13 15:50:20;;;;;;;;;;;;;;;24.84;36.00;95954.56;5065825;28;20116;-83
2023/10/13 15:52:47;;;;;;;;;;;;;;;24.77;36.01;95950.81;5065545;28;20217;-83
2023/10/13 15:55:13;;;;;;;;;;;;;;;24.69;35.86;95945.16;5065739;28;19959;-83
2023/10/13 15:57:39;;;;;;;;;;;;;;;24.63;37.18;95941.06;5063790;28;20121;-83
2023/10/13 16:00:22;;;;;;;;;;;;;;;24.55;37.30;95933.03;5065336;28;19932;-83
2023/10/13 16:02:52;;;;;;;;;;;;;;;24.44;37.33;95933.38;5064350;28;19956;-75
2023/10/13 16:05:18;;;;;;;;;;;;;;;24.35;38.46;95931.81;5064827;28;19933;-74
2023/10/13 16:07:45;;;;;;;;;;;;;;;24.25;37.76;95922.22;5064699;28;19934;-75
2023/10/13 16:10:11;;;;;;;;;;;;;;;24.15;37.51;95926.03;5064599;28;19939;-74
2023/10/13 16:12:37;;;;;;;;;;;;;;;24.10;38.34;95920.81;5064627;28;19930;-74
2023/10/13 16:15:08;;;;;;;;;;;;;;;24.01;39.64;95923.50;5064601;28;19935;-74
2023/10/13 16:17:33;;;;;;;;;;;;;;;23.90;40.29;95922.28;5064415;28;19949;-74
2023/10/13 16:19:59;;;;;;;;;;;;;;;23.77;41.11;95929.38;5065008;28;19939;-74
2023/10/13 16:22:25;;;;;;;;;;;;;;;23.63;40.58;95926.81;5064450;28;19976;-71
2023/10/13 16:24:52;;;;;;;;;;;;;;;23.51;41.07;95924.75;5064910;28;19934;-76
2023/10/13 16:27:19;;;;;;;;;;;;;;;23.40;42.80;95926.16;5064360;28;19938;-75
2023/10/13 16:29:45;;;;;;;;;;;;;;;23.29;43.22;95930.25;5064860;28;19938;-75
2023/10/13 16:32:11;;;;;;;;;;;;;;;23.20;44.85;95929.41;5064817;28;20001;-74
2023/10/13 16:34:38;;;;;;;;;;;;;;;23.09;44.78;95932.38;5064186;28;19948;-74
2023/10/13 16:37:04;;;;;;;;;;;;;;;22.99;45.65;95934.53;5064614;28;19960;-74
2023/10/13 16:39:30;;;;;;;;;;;;;;;22.86;45.74;95936.22;5063079;28;19949;-74
2023/10/13 16:41:56;;;;;;;;;;;;;;;22.71;44.99;95940.09;5064175;28;19927;-71